Chicago Rockford International Airport Chicago,Rockford US
ICAO: KRFD
IATA: RFD
Category: Large
Scheduled Services: Yes

Elevation: 742 ft
TransAlt. 18000 ft.

Airport Communications:
ROCKFORD APP/DEP:121
ATIS:126.7
CLNC DEL:119.25
GND:121.9
KANKAKEE RDO:122.65
ROCKFORD TWR:118.3
UNICOM:122.95

KRFD Zoom In..

If you have problems with the map follow the link
https://www.worldairports.se/pages/airport.php?
ICAO=KRFD

Runways:

(A) RW 01 length 8200 ft width 150 ft
ILS 109.30 / hdg 5

(B) RW 07 length 10002 ft width 150 ft
ILS 109.55 / hdg 65

(C) RW 19 length 8200 ft width 150 ft
---- / hdg 185

(D) RW 25 length 10002 ft width 150 ft
---- / hdg 245

Location; KRFD
Day. 19 / Time. 21.54 Zulu
* Altimeter: 29.66
* Temperature: 19° c. 66.2°f.
* Wind from: 260° Speed 14 kn with Gusts up to 27 kn.
Dewpoint: 13° c.
Visibility: 10 Statute Miles.
Clouds: Scattered 2900 ft.
Clouds: Broken 3500 ft.

KRFD 192154Z 26014G27KT 10SM SCT029 BKN035 19/13 A2966 RMK AO2 PK WND 27030/2114 SLP040 T01940128 $


Wind From 260°
Speed 14 kn.

 
 
jpsmedia.com for Web Design worldairports.se 2019   terms of use